createdAt,value
2016-08-20T00:00:00.286Z,0
2016-08-20T00:00:59.007Z,0
2016-08-20T00:01:59.338Z,0
2016-08-20T00:03:00.990Z,0
2016-08-20T00:03:59.092Z,0
2016-08-20T00:04:57.642Z,0
2016-08-20T00:05:59.224Z,0
2016-08-20T00:07:01.451Z,0
2016-08-20T00:08:00.235Z,0
2016-08-20T00:08:58.535Z,0
2016-08-20T00:10:00.111Z,0
2016-08-20T00:10:59.321Z,0
2016-08-20T00:12:00.087Z,0
2016-08-20T00:12:58.847Z,0
2016-08-20T00:13:59.338Z,0
2016-08-20T00:14:59.764Z,0
2016-08-20T00:16:00.212Z,0
2016-08-20T00:16:59.368Z,0
2016-08-20T00:17:59.918Z,0
2016-08-20T00:19:01.016Z,0
2016-08-20T00:19:59.810Z,0
2016-08-20T00:21:00.740Z,0
2016-08-20T00:21:58.124Z,0
2016-08-20T00:22:58.921Z,0
2016-08-20T00:23:59.871Z,0
2016-08-20T00:25:00.279Z,0
2016-08-20T00:25:59.248Z,0
2016-08-20T00:27:00.384Z,0
2016-08-20T00:28:00.752Z,0
2016-08-20T00:28:59.696Z,0
2016-08-20T00:29:59.859Z,0
2016-08-20T00:31:00.520Z,0
2016-08-20T00:32:01.396Z,0
2016-08-20T00:33:00.924Z,0
2016-08-20T00:34:00.308Z,0
2016-08-20T00:35:01.281Z,0
2016-08-20T00:35:58.291Z,0
2016-08-20T00:37:01.762Z,0
2016-08-20T00:38:00.164Z,0
2016-08-20T00:38:59.110Z,0
2016-08-20T00:40:00.304Z,0
2016-08-20T00:41:00.358Z,0
2016-08-20T00:42:01.110Z,0
2016-08-20T00:43:01.140Z,0
2016-08-20T00:43:59.069Z,0
2016-08-20T00:44:58.521Z,0
2016-08-20T00:46:01.148Z,0
2016-08-20T00:47:01.405Z,0
2016-08-20T00:48:00.006Z,0
2016-08-20T00:48:59.917Z,0
2016-08-20T00:50:00.496Z,0
2016-08-20T00:51:01.303Z,0
2016-08-20T00:52:02.209Z,0
2016-08-20T00:53:01.224Z,0
2016-08-20T00:54:01.511Z,0
2016-08-20T00:54:59.641Z,0
2016-08-20T00:56:00.488Z,0
2016-08-20T00:57:00.028Z,0
2016-08-20T00:58:01.334Z,0
2016-08-20T00:59:00.633Z,0
2016-08-20T01:00:02.571Z,0
2016-08-20T01:01:00.550Z,0
2016-08-20T01:02:00.097Z,0
2016-08-20T01:03:00.071Z,0
2016-08-20T01:04:00.523Z,0
2016-08-20T01:05:00.899Z,0
2016-08-20T01:06:03.279Z,0
2016-08-20T01:07:01.761Z,0
2016-08-20T01:08:01.259Z,0
2016-08-20T01:08:59.918Z,0
2016-08-20T01:10:00.600Z,0
2016-08-20T01:11:00.948Z,0
2016-08-20T01:12:02.956Z,0
2016-08-20T01:13:00.933Z,0
2016-08-20T01:14:00.511Z,0
2016-08-20T01:15:02.117Z,0
2016-08-20T01:16:03.775Z,0
2016-08-20T01:17:00.153Z,0
2016-08-20T01:18:01.483Z,0
2016-08-20T01:19:00.731Z,0
2016-08-20T01:20:00.946Z,0
2016-08-20T01:21:00.506Z,0
2016-08-20T01:22:00.686Z,0
2016-08-20T01:23:04.263Z,0
2016-08-20T01:24:00.810Z,0
2016-08-20T01:25:01.066Z,0
2016-08-20T01:26:01.216Z,0
2016-08-20T01:26:59.455Z,0
2016-08-20T01:28:01.956Z,0
2016-08-20T01:29:00.211Z,0
2016-08-20T01:30:02.505Z,0
2016-08-20T01:31:01.772Z,0
2016-08-20T01:32:02.286Z,0
2016-08-20T01:33:00.568Z,0
2016-08-20T01:34:01.804Z,0
2016-08-20T01:35:03.903Z,0
2016-08-20T01:36:02.206Z,0
2016-08-20T01:37:02.161Z,0
2016-08-20T01:38:00.749Z,0
2016-08-20T01:39:02.352Z,0
2016-08-20T01:40:01.142Z,0
2016-08-20T01:41:02.686Z,0
2016-08-20T01:42:01.663Z,0
2016-08-20T01:43:02.612Z,0
2016-08-20T01:44:02.256Z,0
2016-08-20T01:45:02.960Z,0
2016-08-20T01:46:01.562Z,0
2016-08-20T01:47:02.244Z,0
2016-08-20T01:48:01.431Z,0
2016-08-20T01:49:00.667Z,0
2016-08-20T01:50:01.624Z,0
2016-08-20T01:51:02.455Z,0
2016-08-20T01:52:01.175Z,0
2016-08-20T01:53:01.434Z,0
2016-08-20T01:54:01.413Z,0
2016-08-20T01:55:01.958Z,0
2016-08-20T01:56:03.074Z,0
2016-08-20T01:57:01.477Z,0
2016-08-20T01:58:02.670Z,0
2016-08-20T01:59:04.229Z,0
2016-08-20T02:00:04.847Z,0
2016-08-20T02:01:03.499Z,0
2016-08-20T02:02:01.089Z,0
2016-08-20T02:03:01.479Z,0
2016-08-20T02:04:01.721Z,0
2016-08-20T02:05:03.458Z,0
2016-08-20T02:06:02.280Z,0
2016-08-20T02:07:02.231Z,0
2016-08-20T02:08:02.668Z,0
2016-08-20T02:09:02.774Z,0
2016-08-20T02:10:02.749Z,0
2016-08-20T02:11:02.376Z,0
2016-08-20T02:12:01.389Z,0
2016-08-20T02:13:02.393Z,0
2016-08-20T02:14:02.486Z,0
2016-08-20T02:15:02.184Z,0
2016-08-20T02:16:02.773Z,0
2016-08-20T02:17:03.301Z,0
2016-08-20T02:18:04.314Z,0
2016-08-20T02:19:03.289Z,0
2016-08-20T02:20:03.450Z,0
2016-08-20T02:21:02.521Z,0
2016-08-20T02:22:01.198Z,0
2016-08-20T02:23:02.939Z,0
2016-08-20T02:24:02.682Z,0
2016-08-20T02:25:02.742Z,0
2016-08-20T02:26:02.439Z,0
2016-08-20T02:27:04.351Z,0
2016-08-20T02:28:02.556Z,0
2016-08-20T02:29:04.087Z,0
2016-08-20T02:30:04.019Z,0
2016-08-20T02:31:02.829Z,0
2016-08-20T02:32:04.166Z,0
2016-08-20T02:33:02.091Z,0
2016-08-20T02:34:02.755Z,0
2016-08-20T02:35:03.144Z,0
2016-08-20T02:36:03.344Z,0
2016-08-20T02:37:03.767Z,0
2016-08-20T02:38:06.355Z,0
2016-08-20T02:39:02.867Z,0
2016-08-20T02:40:04.072Z,0
2016-08-20T02:41:02.537Z,0
2016-08-20T02:42:03.157Z,0
2016-08-20T02:43:04.877Z,0
2016-08-20T02:44:02.810Z,0
2016-08-20T02:45:04.933Z,0
2016-08-20T02:46:03.541Z,0
2016-08-20T02:47:03.214Z,0
2016-08-20T02:48:02.152Z,0
2016-08-20T02:49:02.850Z,0
2016-08-20T02:50:03.114Z,0
2016-08-20T02:51:03.775Z,0
2016-08-20T02:52:04.936Z,0
2016-08-20T02:53:03.577Z,0
2016-08-20T02:54:04.037Z,0
2016-08-20T02:55:04.948Z,0
2016-08-20T02:56:04.497Z,0
2016-08-20T02:57:03.559Z,0
2016-08-20T02:58:04.419Z,0
2016-08-20T02:59:04.286Z,0
2016-08-20T03:00:04.691Z,0
2016-08-20T03:01:04.633Z,0
2016-08-20T03:02:04.029Z,0
2016-08-20T03:03:07.707Z,0
2016-08-20T03:04:03.920Z,0
2016-08-20T03:05:05.807Z,0
2016-08-20T03:06:06.702Z,0
2016-08-20T03:07:04.466Z,0
2016-08-20T03:08:03.357Z,0
2016-08-20T03:09:02.304Z,0
2016-08-20T03:10:02.819Z,0
2016-08-20T03:11:05.438Z,0
2016-08-20T03:12:05.371Z,0
2016-08-20T03:13:04.694Z,0
2016-08-20T03:14:04.267Z,0
2016-08-20T03:15:04.372Z,0
2016-08-20T03:16:03.392Z,0
2016-08-20T03:17:02.367Z,0
2016-08-20T03:18:04.721Z,0
2016-08-20T03:19:05.127Z,0
2016-08-20T03:20:03.414Z,0
2016-08-20T03:21:02.633Z,0
2016-08-20T03:22:05.411Z,0
2016-08-20T03:23:02.980Z,0
2016-08-20T03:24:05.760Z,0
2016-08-20T03:25:06.354Z,0
2016-08-20T03:26:04.673Z,0
2016-08-20T03:27:05.499Z,0
2016-08-20T03:28:05.677Z,0
2016-08-20T03:29:05.231Z,0
2016-08-20T03:30:03.466Z,0
2016-08-20T03:31:05.112Z,0
2016-08-20T03:32:04.546Z,0
2016-08-20T03:33:03.528Z,0
2016-08-20T03:34:06.137Z,0
2016-08-20T03:35:05.570Z,0
2016-08-20T03:36:05.154Z,0
2016-08-20T03:37:05.923Z,0
2016-08-20T03:38:05.209Z,0
2016-08-20T03:39:05.210Z,0
2016-08-20T03:40:03.342Z,0
2016-08-20T03:41:04.505Z,0
2016-08-20T03:42:04.314Z,0
2016-08-20T03:43:04.331Z,0
2016-08-20T03:44:05.333Z,0
2016-08-20T03:45:05.930Z,0
2016-08-20T03:46:04.544Z,0
2016-08-20T03:47:04.580Z,0
2016-08-20T03:48:04.805Z,0
2016-08-20T03:49:04.154Z,4
2016-08-20T03:50:04.033Z,4
2016-08-20T03:51:05.203Z,4
2016-08-20T03:52:05.235Z,0
2016-08-20T03:53:05.221Z,4
2016-08-20T03:54:07.487Z,4
2016-08-20T03:55:05.724Z,4
2016-08-20T03:56:04.974Z,8
2016-08-20T03:57:06.142Z,12
2016-08-20T03:58:04.561Z,12
2016-08-20T03:59:04.498Z,16
2016-08-20T04:00:05.431Z,16
2016-08-20T04:01:05.463Z,24
2016-08-20T04:02:05.347Z,24
2016-08-20T04:03:06.515Z,32
2016-08-20T04:04:05.837Z,36
2016-08-20T04:05:05.668Z,40
2016-08-20T04:06:04.910Z,44
2016-08-20T04:07:05.237Z,48
2016-08-20T04:08:07.536Z,56
2016-08-20T04:09:06.667Z,64
2016-08-20T04:10:06.612Z,72
2016-08-20T04:11:04.974Z,76
2016-08-20T04:12:04.707Z,84
2016-08-20T04:13:04.442Z,92
2016-08-20T04:14:04.835Z,100
2016-08-20T04:15:07.569Z,104
2016-08-20T04:16:06.235Z,112
2016-08-20T04:17:05.938Z,120
2016-08-20T04:18:05.751Z,128
2016-08-20T04:19:05.713Z,136
2016-08-20T04:20:07.507Z,148
2016-08-20T04:21:05.099Z,160
2016-08-20T04:22:05.323Z,184
2016-08-20T04:23:02.903Z,208
2016-08-20T04:24:06.810Z,236
2016-08-20T04:25:05.834Z,268
2016-08-20T04:26:06.724Z,292
2016-08-20T04:27:06.520Z,300
2016-08-20T04:28:04.460Z,304
2016-08-20T04:29:05.349Z,312
2016-08-20T04:30:05.365Z,348
2016-08-20T04:31:05.819Z,408
2016-08-20T04:32:09.149Z,468
2016-08-20T04:33:06.102Z,516
2016-08-20T04:34:05.794Z,576
2016-08-20T04:35:07.409Z,632
2016-08-20T04:36:05.716Z,684
2016-08-20T04:37:05.671Z,724
2016-08-20T04:38:06.006Z,748
2016-08-20T04:39:06.818Z,772
2016-08-20T04:40:05.818Z,784
2016-08-20T04:41:07.581Z,816
2016-08-20T04:42:07.676Z,856
2016-08-20T04:43:07.462Z,888
2016-08-20T04:44:07.462Z,976
2016-08-20T04:45:07.965Z,1020
2016-08-20T04:46:07.437Z,992
2016-08-20T04:47:07.373Z,948
2016-08-20T04:48:05.147Z,944
2016-08-20T04:49:08.966Z,1000
2016-08-20T04:50:06.933Z,1048
2016-08-20T04:51:07.513Z,1092
2016-08-20T04:52:06.677Z,1132
2016-08-20T04:53:05.383Z,1196
2016-08-20T04:54:06.180Z,1296
2016-08-20T04:55:07.149Z,1444
2016-08-20T04:56:06.359Z,1524
2016-08-20T04:57:06.161Z,1632
2016-08-20T04:58:07.854Z,1804
2016-08-20T04:59:06.726Z,1968
2016-08-20T05:00:08.581Z,2176
2016-08-20T05:01:05.677Z,2448
2016-08-20T05:02:06.827Z,2776
2016-08-20T05:03:07.369Z,2964
2016-08-20T05:04:09.896Z,2976
2016-08-20T05:05:07.159Z,2860
2016-08-20T05:06:07.806Z,2616
2016-08-20T05:07:08.454Z,2452
2016-08-20T05:08:06.915Z,2436
2016-08-20T05:09:06.471Z,2460
2016-08-20T05:10:07.592Z,2424
2016-08-20T05:11:07.086Z,2284
2016-08-20T05:12:07.787Z,2040
2016-08-20T05:13:07.954Z,1748
2016-08-20T05:14:07.667Z,1560
2016-08-20T05:15:07.065Z,1528
2016-08-20T05:16:08.425Z,1536
2016-08-20T05:17:07.164Z,1472
2016-08-20T05:18:07.360Z,1424
2016-08-20T05:19:07.504Z,1444
2016-08-20T05:20:07.288Z,1460
2016-08-20T05:21:06.697Z,1412
2016-08-20T05:22:06.851Z,1336
2016-08-20T05:23:05.593Z,1276
2016-08-20T05:24:09.602Z,1284
2016-08-20T05:25:07.095Z,1380
2016-08-20T05:26:06.702Z,1424
2016-08-20T05:27:05.864Z,1396
2016-08-20T05:28:08.752Z,1388
2016-08-20T05:29:07.578Z,1444
2016-08-20T05:30:06.806Z,1524
2016-08-20T05:31:06.626Z,1636
2016-08-20T05:32:07.772Z,1764
2016-08-20T05:33:06.593Z,1864
2016-08-20T05:34:08.157Z,1888
2016-08-20T05:35:07.419Z,1836
2016-08-20T05:36:09.131Z,1748
2016-08-20T05:37:07.765Z,1676
2016-08-20T05:38:06.865Z,1612
2016-08-20T05:39:09.628Z,1552
2016-08-20T05:40:08.981Z,1512
2016-08-20T05:41:07.398Z,1520
2016-08-20T05:42:08.244Z,1552
2016-08-20T05:43:11.611Z,1596
2016-08-20T05:44:08.535Z,1632
2016-08-20T05:45:09.371Z,1704
2016-08-20T05:46:09.924Z,1756
2016-08-20T05:47:08.574Z,1724
2016-08-20T05:48:06.762Z,1624
2016-08-20T05:49:09.774Z,1564
2016-08-20T05:50:08.489Z,1592
2016-08-20T05:51:10.011Z,1716
2016-08-20T05:52:09.593Z,1968
2016-08-20T05:53:09.300Z,2340
2016-08-20T05:54:08.502Z,2880
2016-08-20T05:55:07.762Z,3556
2016-08-20T05:56:08.541Z,4072
2016-08-20T05:57:10.320Z,4072
2016-08-20T05:58:08.116Z,3800
2016-08-20T05:59:08.923Z,3724
2016-08-20T06:00:09.113Z,3748
2016-08-20T06:01:09.522Z,3724
2016-08-20T06:02:09.180Z,4008
2016-08-20T06:03:09.918Z,4596
2016-08-20T06:04:08.311Z,5084
2016-08-20T06:05:10.125Z,5100
2016-08-20T06:06:08.311Z,4572
2016-08-20T06:07:07.512Z,4020
2016-08-20T06:08:07.667Z,3620
2016-08-20T06:09:08.385Z,3436
2016-08-20T06:10:10.611Z,3544
2016-08-20T06:11:09.801Z,3924
2016-08-20T06:12:10.246Z,4488
2016-08-20T06:13:08.914Z,5388
2016-08-20T06:14:09.626Z,6984
2016-08-20T06:15:08.134Z,8916
2016-08-20T06:16:10.674Z,10848
2016-08-20T06:17:08.095Z,11832
2016-08-20T06:18:10.666Z,13288
2016-08-20T06:19:08.535Z,14656
2016-08-20T06:20:09.926Z,14788
2016-08-20T06:21:08.163Z,13456
2016-08-20T06:22:10.477Z,11440
2016-08-20T06:23:08.066Z,11216
2016-08-20T06:24:08.776Z,12356
2016-08-20T06:25:09.447Z,13856
2016-08-20T06:26:10.617Z,15140
2016-08-20T06:27:09.133Z,13380
2016-08-20T06:28:09.201Z,13656
2016-08-20T06:29:09.453Z,14800
2016-08-20T06:30:08.550Z,15632
2016-08-20T06:31:10.358Z,16020
2016-08-20T06:32:08.802Z,16832
2016-08-20T06:33:09.041Z,17280
2016-08-20T06:34:09.534Z,17216
2016-08-20T06:35:11.382Z,16640
2016-08-20T06:36:10.052Z,15292
2016-08-20T06:37:11.937Z,14340
2016-08-20T06:38:10.036Z,13540
2016-08-20T06:39:09.657Z,13228
2016-08-20T06:40:09.795Z,13220
2016-08-20T06:41:09.308Z,13200
2016-08-20T06:42:10.500Z,13140
2016-08-20T06:43:11.371Z,13412
2016-08-20T06:44:09.170Z,13636
2016-08-20T06:45:09.392Z,13128
2016-08-20T06:46:09.793Z,12700
2016-08-20T06:47:10.288Z,12836
2016-08-20T06:48:11.288Z,13348
2016-08-20T06:49:08.655Z,13400
2016-08-20T06:50:10.163Z,12628
2016-08-20T06:51:09.354Z,12200
2016-08-20T06:52:08.935Z,12244
2016-08-20T06:53:09.604Z,12076
2016-08-20T06:54:10.703Z,11524
2016-08-20T06:55:09.524Z,11024
2016-08-20T06:56:10.803Z,10860
2016-08-20T06:57:10.166Z,11004
2016-08-20T06:58:12.983Z,11152
2016-08-20T06:59:09.687Z,11232
2016-08-20T07:00:09.335Z,11368
2016-08-20T07:01:10.449Z,11660
2016-08-20T07:02:09.817Z,12072
2016-08-20T07:03:11.008Z,12636
2016-08-20T07:04:09.109Z,12952
2016-08-20T07:05:09.420Z,13044
2016-08-20T07:06:09.032Z,13304
2016-08-20T07:07:09.105Z,13772
2016-08-20T07:08:10.638Z,13892
2016-08-20T07:09:10.838Z,12752
2016-08-20T07:10:10.662Z,12524
2016-08-20T07:11:11.443Z,14360
2016-08-20T07:12:10.753Z,15244
2016-08-20T07:13:11.007Z,15360
2016-08-20T07:14:10.140Z,14416
2016-08-20T07:15:10.630Z,14004
2016-08-20T07:16:11.619Z,13664
2016-08-20T07:17:11.171Z,14152
2016-08-20T07:18:08.852Z,15652
2016-08-20T07:19:10.233Z,15452
2016-08-20T07:20:10.894Z,14908
2016-08-20T07:21:10.256Z,14324
2016-08-20T07:22:10.255Z,13248
2016-08-20T07:23:09.864Z,12672
2016-08-20T07:25:10.622Z,12704
2016-08-20T07:26:10.483Z,13364
2016-08-20T07:27:10.903Z,13044
2016-08-20T07:28:11.810Z,13004
2016-08-20T07:29:10.488Z,12808
2016-08-20T07:30:09.610Z,12580
2016-08-20T07:31:10.812Z,12512
2016-08-20T07:32:10.295Z,12820
2016-08-20T07:33:10.345Z,12504
2016-08-20T07:34:10.478Z,12988
2016-08-20T07:35:10.601Z,13852
2016-08-20T07:36:13.608Z,14636
2016-08-20T07:37:08.996Z,14856
2016-08-20T07:38:10.378Z,14780
2016-08-20T07:39:11.923Z,15076
2016-08-20T07:40:12.166Z,15756
2016-08-20T07:41:11.450Z,16328
2016-08-20T07:42:11.642Z,17664
2016-08-20T07:43:11.478Z,18912
2016-08-20T07:44:12.820Z,20000
2016-08-20T07:45:11.930Z,19136
2016-08-20T07:46:10.721Z,17344
2016-08-20T07:47:09.719Z,16260
2016-08-20T07:48:10.443Z,16992
2016-08-20T07:49:10.799Z,17024
2016-08-20T07:50:12.030Z,16544
2016-08-20T07:51:11.749Z,17152
2016-08-20T07:52:11.854Z,17824
2016-08-20T07:53:12.848Z,18624
2016-08-20T07:54:12.264Z,17920
2016-08-20T07:55:11.865Z,16480
2016-08-20T07:56:11.949Z,16768
2016-08-20T07:57:13.265Z,17376
2016-08-20T07:58:13.207Z,17152
2016-08-20T07:59:12.072Z,15736
2016-08-20T08:00:11.769Z,15016
2016-08-20T08:01:11.571Z,13900
2016-08-20T08:02:10.679Z,13800
2016-08-20T08:03:13.296Z,13208
2016-08-20T08:04:09.555Z,13496
2016-08-20T08:05:11.718Z,13116
2016-08-20T08:06:10.258Z,13120
2016-08-20T08:07:10.700Z,12912
2016-08-20T08:08:11.283Z,13148
2016-08-20T08:09:12.175Z,14388
2016-08-20T08:10:12.877Z,14360
2016-08-20T08:11:13.637Z,13672
2016-08-20T08:12:13.519Z,13128
2016-08-20T08:13:10.179Z,13156
2016-08-20T08:14:13.503Z,14060
2016-08-20T08:15:13.330Z,16232
2016-08-20T08:16:12.166Z,18592
2016-08-20T08:17:11.612Z,20320
2016-08-20T08:18:13.455Z,20448
2016-08-20T08:19:11.685Z,21248
2016-08-20T08:20:12.777Z,22016
2016-08-20T08:21:10.784Z,21504
2016-08-20T08:22:11.008Z,21952
2016-08-20T08:23:10.814Z,22144
2016-08-20T08:24:14.269Z,22528
2016-08-20T08:25:13.436Z,22976
2016-08-20T08:26:12.946Z,22176
2016-08-20T08:27:12.336Z,21760
2016-08-20T08:28:12.708Z,21632
2016-08-20T08:29:13.018Z,21440
2016-08-20T08:30:15.698Z,20192
2016-08-20T08:31:12.245Z,18176
2016-08-20T08:32:12.956Z,17888
2016-08-20T08:33:12.769Z,18720
2016-08-20T08:34:13.391Z,19712
2016-08-20T08:35:12.180Z,19520
2016-08-20T08:36:11.961Z,19072
2016-08-20T08:37:14.555Z,18912
2016-08-20T08:38:12.827Z,20032
2016-08-20T08:39:11.855Z,22496
2016-08-20T08:40:10.900Z,24064
2016-08-20T08:41:11.744Z,24576
2016-08-20T08:42:13.161Z,23872
2016-08-20T08:43:12.388Z,25792
2016-08-20T08:44:14.161Z,25824
2016-08-20T08:45:13.028Z,23488
2016-08-20T08:46:12.762Z,19936
2016-08-20T08:47:16.434Z,18048
2016-08-20T08:48:13.144Z,18656
2016-08-20T08:49:12.878Z,19488
2016-08-20T08:50:13.123Z,20000
2016-08-20T08:51:11.847Z,20608
2016-08-20T08:52:13.317Z,21120
2016-08-20T08:53:13.153Z,20896
2016-08-20T08:54:12.659Z,20704
2016-08-20T08:55:14.790Z,21376
2016-08-20T08:56:14.346Z,21760
2016-08-20T08:57:12.269Z,21440
2016-08-20T08:58:13.512Z,21216
2016-08-20T08:59:13.989Z,22464
2016-08-20T09:00:12.867Z,24480
2016-08-20T09:01:12.287Z,25088
2016-08-20T09:02:14.517Z,24000
2016-08-20T09:03:14.598Z,23712
2016-08-20T09:04:13.238Z,24256
2016-08-20T09:05:12.852Z,24800
2016-08-20T09:06:12.364Z,25280
2016-08-20T09:07:14.040Z,25600
2016-08-20T09:08:13.684Z,24768
2016-08-20T09:09:15.189Z,24416
2016-08-20T09:10:13.698Z,25152
2016-08-20T09:11:13.888Z,26720
2016-08-20T09:12:15.630Z,28032
2016-08-20T09:13:13.925Z,29376
2016-08-20T09:14:13.636Z,33440
2016-08-20T09:15:14.200Z,45440
2016-08-20T09:16:14.054Z,38688
2016-08-20T09:17:13.943Z,34144
2016-08-20T09:18:16.327Z,30592
2016-08-20T09:19:14.078Z,26560
2016-08-20T09:20:13.043Z,22848
2016-08-20T09:21:14.812Z,20992
2016-08-20T09:22:14.818Z,21888
2016-08-20T09:23:13.961Z,24448
2016-08-20T09:24:12.589Z,25920
2016-08-20T09:25:13.434Z,28032
2016-08-20T09:26:13.245Z,33376
2016-08-20T09:27:14.344Z,36416
2016-08-20T09:28:13.432Z,33184
2016-08-20T09:29:14.846Z,33408
2016-08-20T09:30:12.510Z,39744
2016-08-20T09:31:14.755Z,34432
2016-08-20T09:32:13.265Z,36064
2016-08-20T09:33:12.984Z,33984
2016-08-20T09:34:14.803Z,44960
2016-08-20T09:35:15.491Z,50944
2016-08-20T09:36:13.309Z,45408
2016-08-20T09:37:14.956Z,45312
2016-08-20T09:38:15.591Z,54848
2016-08-20T09:39:14.886Z,54080
2016-08-20T09:40:13.304Z,53152
2016-08-20T09:41:14.864Z,42112
2016-08-20T09:42:15.012Z,43360
2016-08-20T09:43:14.497Z,50336
2016-08-20T09:44:16.051Z,45056
2016-08-20T09:45:15.156Z,47584
2016-08-20T09:46:16.201Z,45088
2016-08-20T09:47:16.731Z,39968
2016-08-20T09:48:15.383Z,38496
2016-08-20T09:49:14.081Z,40000
2016-08-20T09:50:16.087Z,43264
2016-08-20T09:51:15.368Z,48320
2016-08-20T09:52:15.826Z,44576
2016-08-20T09:53:14.304Z,42784
2016-08-20T09:54:13.526Z,56896
2016-08-20T09:55:14.943Z,44832
2016-08-20T09:56:15.427Z,40000
2016-08-20T09:57:16.684Z,35616
2016-08-20T09:58:13.225Z,31712
2016-08-20T09:59:15.446Z,28864
2016-08-20T10:00:15.680Z,27232
2016-08-20T10:01:18.213Z,25280
2016-08-20T10:02:16.978Z,22784
2016-08-20T10:03:14.716Z,19104
2016-08-20T10:04:15.311Z,15328
2016-08-20T10:05:17.376Z,12764
2016-08-20T10:06:14.895Z,11244
2016-08-20T10:07:15.035Z,9876
2016-08-20T10:08:15.105Z,8464
2016-08-20T10:09:14.599Z,7556
2016-08-20T10:10:15.196Z,6628
2016-08-20T10:11:15.629Z,5960
2016-08-20T10:12:16.523Z,5956
2016-08-20T10:13:15.013Z,6064
2016-08-20T10:14:19.303Z,6024
2016-08-20T10:15:19.081Z,6260
2016-08-20T10:16:18.562Z,6884
2016-08-20T10:17:16.553Z,7676
2016-08-20T10:18:17.185Z,8424
2016-08-20T10:19:17.163Z,8672
2016-08-20T10:20:19.449Z,8208
2016-08-20T10:21:19.063Z,7768
2016-08-20T10:22:17.959Z,7488
2016-08-20T10:23:17.527Z,7604
2016-08-20T10:24:14.968Z,8548
2016-08-20T10:25:16.857Z,10724
2016-08-20T10:26:14.991Z,13544
2016-08-20T10:27:17.188Z,15684
2016-08-20T10:28:18.206Z,16356
2016-08-20T10:29:16.356Z,16608
2016-08-20T10:30:17.793Z,17408
2016-08-20T10:31:15.533Z,18560
2016-08-20T10:32:16.680Z,18720
2016-08-20T10:33:16.346Z,18688
2016-08-20T10:34:17.185Z,19232
2016-08-20T10:35:16.679Z,18816
2016-08-20T10:36:15.281Z,16484
2016-08-20T10:37:14.771Z,13892
2016-08-20T10:38:15.657Z,11716
2016-08-20T10:39:16.805Z,10244
2016-08-20T10:40:16.264Z,8724
2016-08-20T10:41:17.267Z,7196
2016-08-20T10:42:15.338Z,6388
2016-08-20T10:43:17.043Z,5864
2016-08-20T10:44:16.589Z,5508
2016-08-20T10:45:16.662Z,5868
2016-08-20T10:46:18.020Z,6288
2016-08-20T10:47:16.702Z,6648
2016-08-20T10:48:17.287Z,7764
2016-08-20T10:49:17.008Z,8816
2016-08-20T10:50:17.685Z,8992
2016-08-20T10:51:17.429Z,8664
2016-08-20T10:52:16.947Z,7384
2016-08-20T10:53:16.058Z,5772
2016-08-20T10:54:17.940Z,4568
2016-08-20T10:55:16.739Z,3992
2016-08-20T10:56:17.103Z,3892
2016-08-20T10:57:18.183Z,3856
2016-08-20T10:58:16.542Z,3756
2016-08-20T10:59:18.663Z,3856
2016-08-20T11:00:17.682Z,4052
2016-08-20T11:01:17.570Z,4260
2016-08-20T11:02:16.302Z,4480
2016-08-20T11:03:19.093Z,4780
2016-08-20T11:04:16.416Z,5544
2016-08-20T11:05:18.037Z,6360
2016-08-20T11:06:16.785Z,6660
2016-08-20T11:07:18.498Z,6868
2016-08-20T11:08:17.372Z,6780
2016-08-20T11:09:17.434Z,6112
2016-08-20T11:10:16.678Z,5072
2016-08-20T11:11:17.021Z,3992
2016-08-20T11:12:16.930Z,3224
2016-08-20T11:13:18.954Z,3000
2016-08-20T11:14:16.794Z,3324
2016-08-20T11:15:18.831Z,4872
2016-08-20T11:16:18.508Z,7324
2016-08-20T11:17:18.141Z,9476
2016-08-20T11:18:17.692Z,10964
2016-08-20T11:19:17.447Z,13352
2016-08-20T11:20:18.034Z,17184
2016-08-20T11:21:16.770Z,20480
2016-08-20T11:22:19.177Z,22304
2016-08-20T11:23:17.608Z,25536
2016-08-20T11:24:17.951Z,31264
2016-08-20T11:25:17.713Z,36832
2016-08-20T11:26:17.460Z,39552
2016-08-20T11:27:18.914Z,40352
2016-08-20T11:28:20.635Z,41056
2016-08-20T11:29:17.974Z,41760
2016-08-20T11:30:17.623Z,46400
2016-08-20T11:31:17.232Z,44800
2016-08-20T11:32:16.763Z,53952
2016-08-20T11:33:19.903Z,45728
2016-08-20T11:34:18.313Z,53056
2016-08-20T11:35:19.188Z,50912
2016-08-20T11:36:18.290Z,53184
2016-08-20T11:37:19.541Z,62720
2016-08-20T11:38:17.566Z,65088
2016-08-20T11:39:19.773Z,56832
2016-08-20T11:40:19.023Z,63584
2016-08-20T11:41:17.500Z,45824
2016-08-20T11:42:19.535Z,46752
2016-08-20T11:43:17.722Z,40096
2016-08-20T11:44:17.208Z,37856
2016-08-20T11:45:19.866Z,34432
2016-08-20T11:46:19.680Z,32000
2016-08-20T11:47:18.888Z,29152
2016-08-20T11:48:20.279Z,26976
2016-08-20T11:49:17.378Z,25600
2016-08-20T11:50:18.525Z,24832
2016-08-20T11:51:18.227Z,25056
2016-08-20T11:52:17.427Z,27072
2016-08-20T11:53:17.685Z,30208
2016-08-20T11:54:18.519Z,35040
2016-08-20T11:55:18.011Z,37088
2016-08-20T11:56:20.345Z,36512
2016-08-20T11:57:20.082Z,34944
2016-08-20T11:58:19.728Z,33344
2016-08-20T11:59:18.328Z,32576
2016-08-20T12:00:19.028Z,32352
2016-08-20T12:01:18.827Z,32736
2016-08-20T12:02:18.488Z,34560
2016-08-20T12:03:18.735Z,38016
2016-08-20T12:04:19.313Z,39968
2016-08-20T12:05:19.964Z,41568
2016-08-20T12:06:17.830Z,40768
2016-08-20T12:07:19.821Z,39808
2016-08-20T12:08:19.946Z,39936
2016-08-20T12:09:21.104Z,42656
2016-08-20T12:10:19.875Z,42240
2016-08-20T12:11:20.209Z,52480
2016-08-20T12:12:19.452Z,54784
2016-08-20T12:13:20.008Z,44960
2016-08-20T12:14:20.424Z,38976
2016-08-20T12:15:21.423Z,35168
2016-08-20T12:16:21.468Z,34624
2016-08-20T12:17:22.272Z,36192
2016-08-20T12:18:18.531Z,37952
2016-08-20T12:19:18.720Z,42176
2016-08-20T12:20:18.912Z,39488
2016-08-20T12:21:20.266Z,39392
2016-08-20T12:22:19.197Z,41664
2016-08-20T12:23:20.365Z,46976
2016-08-20T12:24:19.219Z,46848
2016-08-20T12:25:20.861Z,41664
2016-08-20T12:26:19.600Z,39904
2016-08-20T12:27:19.149Z,38592
2016-08-20T12:28:19.906Z,37792
2016-08-20T12:29:19.564Z,38624
2016-08-20T12:30:19.025Z,37984
2016-08-20T12:31:21.216Z,40352
2016-08-20T12:32:17.781Z,41120
2016-08-20T12:33:18.608Z,43104
2016-08-20T12:34:19.597Z,42208
2016-08-20T12:35:19.782Z,38400
2016-08-20T12:36:18.576Z,35904
2016-08-20T12:37:19.723Z,33376
2016-08-20T12:38:19.698Z,32704
2016-08-20T12:39:19.940Z,42752
2016-08-20T12:40:18.536Z,33952
2016-08-20T12:41:19.621Z,31872
2016-08-20T12:42:22.225Z,36576
2016-08-20T12:43:20.070Z,32992
2016-08-20T12:44:18.903Z,34784
2016-08-20T12:45:19.472Z,35232
2016-08-20T12:46:19.940Z,32352
2016-08-20T12:47:20.255Z,29888
2016-08-20T12:48:19.396Z,28512
2016-08-20T12:49:20.525Z,28224
2016-08-20T12:50:20.595Z,29440
2016-08-20T12:51:20.589Z,31712
2016-08-20T12:52:19.606Z,30912
2016-08-20T12:53:20.355Z,30144
2016-08-20T12:54:21.007Z,29312
2016-08-20T12:55:21.253Z,29280
2016-08-20T12:56:21.393Z,31104
2016-08-20T12:57:20.848Z,32480
2016-08-20T12:58:20.635Z,33216
2016-08-20T12:59:20.822Z,35136
2016-08-20T13:00:21.996Z,34560
2016-08-20T13:01:21.213Z,34208
2016-08-20T13:02:21.319Z,33184
2016-08-20T13:03:22.333Z,31744
2016-08-20T13:04:20.516Z,31200
2016-08-20T13:05:20.267Z,31776
2016-08-20T13:06:21.911Z,31072
2016-08-20T13:07:20.680Z,28640
2016-08-20T13:08:21.873Z,22784
2016-08-20T13:09:21.894Z,17280
2016-08-20T13:10:20.349Z,14604
2016-08-20T13:11:21.801Z,15736
2016-08-20T13:12:23.353Z,17920
2016-08-20T13:13:20.511Z,18400
2016-08-20T13:14:21.852Z,17856
2016-08-20T13:15:21.199Z,18656
2016-08-20T13:16:21.139Z,20736
2016-08-20T13:17:22.485Z,23008
2016-08-20T13:18:22.556Z,24800
2016-08-20T13:19:22.516Z,25472
2016-08-20T13:20:22.128Z,24864
2016-08-20T13:21:21.072Z,23264
2016-08-20T13:22:21.047Z,21280
2016-08-20T13:23:21.135Z,19808
2016-08-20T13:24:20.334Z,19008
2016-08-20T13:25:23.221Z,18048
2016-08-20T13:26:22.692Z,16672
2016-08-20T13:27:23.202Z,15012
2016-08-20T13:28:24.025Z,13636
2016-08-20T13:29:21.822Z,12424
2016-08-20T13:30:23.976Z,11228
2016-08-20T13:31:22.944Z,10516
2016-08-20T13:32:21.119Z,10340